sensor_id;sensor_type;location;lat;lon;timestamp;temperature;humidity
58554;DHT22;48119;53.218;6.576;2023-06-26T00:01:06;26.00;83.50
58554;DHT22;48119;53.218;6.576;2023-06-26T00:03:33;26.00;83.50
58554;DHT22;48119;53.218;6.576;2023-06-26T00:05:58;26.00;83.50
58554;DHT22;48119;53.218;6.576;2023-06-26T00:08:27;25.90;84.10
58554;DHT22;48119;53.218;6.576;2023-06-26T00:10:52;25.90;83.40
58554;DHT22;48119;53.218;6.576;2023-06-26T00:13:18;25.90;83.50
58554;DHT22;48119;53.218;6.576;2023-06-26T00:15:44;25.90;83.40
58554;DHT22;48119;53.218;6.576;2023-06-26T00:18:10;25.90;83.40
58554;DHT22;48119;53.218;6.576;2023-06-26T00:20:36;25.90;83.40
58554;DHT22;48119;53.218;6.576;2023-06-26T00:23:02;26.00;83.50
58554;DHT22;48119;53.218;6.576;2023-06-26T00:25:33;25.90;83.30
58554;DHT22;48119;53.218;6.576;2023-06-26T00:27:59;25.90;83.40
58554;DHT22;48119;53.218;6.576;2023-06-26T00:30:25;25.90;83.40
58554;DHT22;48119;53.218;6.576;2023-06-26T00:32:51;25.90;83.40
58554;DHT22;48119;53.218;6.576;2023-06-26T00:35:17;25.90;83.40
58554;DHT22;48119;53.218;6.576;2023-06-26T00:37:43;25.90;83.40
58554;DHT22;48119;53.218;6.576;2023-06-26T00:40:09;25.90;83.40
58554;DHT22;48119;53.218;6.576;2023-06-26T00:42:35;25.80;83.50
58554;DHT22;48119;53.218;6.576;2023-06-26T00:45:01;25.80;83.50
58554;DHT22;48119;53.218;6.576;2023-06-26T00:47:27;25.80;83.60
58554;DHT22;48119;53.218;6.576;2023-06-26T00:49:54;25.80;83.60
58554;DHT22;48119;53.218;6.576;2023-06-26T00:52:21;25.80;83.80
58554;DHT22;48119;53.218;6.576;2023-06-26T00:54:47;25.70;83.80
58554;DHT22;48119;53.218;6.576;2023-06-26T00:57:13;25.70;84.00
58554;DHT22;48119;53.218;6.576;2023-06-26T00:59:39;25.70;84.10
58554;DHT22;48119;53.218;6.576;2023-06-26T01:02:05;25.70;84.20
58554;DHT22;48119;53.218;6.576;2023-06-26T01:04:31;25.70;84.30
58554;DHT22;48119;53.218;6.576;2023-06-26T01:06:59;25.70;84.40
58554;DHT22;48119;53.218;6.576;2023-06-26T01:09:27;25.60;84.50
58554;DHT22;48119;53.218;6.576;2023-06-26T01:11:53;25.60;84.60
58554;DHT22;48119;53.218;6.576;2023-06-26T01:14:19;25.60;84.70
58554;DHT22;48119;53.218;6.576;2023-06-26T01:16:45;25.60;84.70
58554;DHT22;48119;53.218;6.576;2023-06-26T01:19:32;25.60;84.80
58554;DHT22;48119;53.218;6.576;2023-06-26T01:22:27;25.60;84.80
58554;DHT22;48119;53.218;6.576;2023-06-26T01:25:09;25.60;84.90
58554;DHT22;48119;53.218;6.576;2023-06-26T01:27:38;25.60;85.00
58554;DHT22;48119;53.218;6.576;2023-06-26T01:30:07;25.60;85.00
58554;DHT22;48119;53.218;6.576;2023-06-26T01:32:33;25.60;85.10
58554;DHT22;48119;53.218;6.576;2023-06-26T01:34:59;25.60;85.10
58554;DHT22;48119;53.218;6.576;2023-06-26T01:37:25;25.60;85.10
58554;DHT22;48119;53.218;6.576;2023-06-26T01:39:51;25.60;85.20
58554;DHT22;48119;53.218;6.576;2023-06-26T01:42:17;25.60;85.20
58554;DHT22;48119;53.218;6.576;2023-06-26T01:44:45;25.60;85.30
58554;DHT22;48119;53.218;6.576;2023-06-26T01:47:16;25.60;85.30
58554;DHT22;48119;53.218;6.576;2023-06-26T01:49:52;25.60;85.30
58554;DHT22;48119;53.218;6.576;2023-06-26T01:52:43;25.60;85.40
58554;DHT22;48119;53.218;6.576;2023-06-26T01:55:46;25.60;85.40
58554;DHT22;48119;53.218;6.576;2023-06-26T01:58:13;25.60;85.40
58554;DHT22;48119;53.218;6.576;2023-06-26T02:00:40;25.50;85.60
58554;DHT22;48119;53.218;6.576;2023-06-26T02:03:06;25.50;85.70
58554;DHT22;48119;53.218;6.576;2023-06-26T02:05:32;25.60;85.90
58554;DHT22;48119;53.218;6.576;2023-06-26T02:07:58;25.50;86.00
58554;DHT22;48119;53.218;6.576;2023-06-26T02:10:26;25.50;85.90
58554;DHT22;48119;53.218;6.576;2023-06-26T02:12:52;25.50;85.90
58554;DHT22;48119;53.218;6.576;2023-06-26T02:15:18;25.50;86.00
58554;DHT22;48119;53.218;6.576;2023-06-26T02:17:43;25.50;86.10
58554;DHT22;48119;53.218;6.576;2023-06-26T02:20:14;25.40;86.10
58554;DHT22;48119;53.218;6.576;2023-06-26T02:22:40;25.40;86.20
58554;DHT22;48119;53.218;6.576;2023-06-26T02:25:06;25.40;86.30
58554;DHT22;48119;53.218;6.576;2023-06-26T02:27:31;25.40;86.40
58554;DHT22;48119;53.218;6.576;2023-06-26T02:29:57;25.40;86.50
58554;DHT22;48119;53.218;6.576;2023-06-26T02:32:23;25.40;86.60
58554;DHT22;48119;53.218;6.576;2023-06-26T02:34:49;25.40;86.70
58554;DHT22;48119;53.218;6.576;2023-06-26T02:37:17;25.30;86.80
58554;DHT22;48119;53.218;6.576;2023-06-26T02:39:43;25.30;87.00
58554;DHT22;48119;53.218;6.576;2023-06-26T02:42:09;25.30;87.00
58554;DHT22;48119;53.218;6.576;2023-06-26T02:44:35;25.30;87.00
58554;DHT22;48119;53.218;6.576;2023-06-26T02:47:00;25.30;87.10
58554;DHT22;48119;53.218;6.576;2023-06-26T02:49:26;25.30;87.20
58554;DHT22;48119;53.218;6.576;2023-06-26T02:51:52;25.30;87.10
58554;DHT22;48119;53.218;6.576;2023-06-26T02:54:17;25.20;87.10
58554;DHT22;48119;53.218;6.576;2023-06-26T02:56:43;25.30;87.20
58554;DHT22;48119;53.218;6.576;2023-06-26T02:59:10;25.30;87.10
58554;DHT22;48119;53.218;6.576;2023-06-26T03:01:36;25.20;87.10
58554;DHT22;48119;53.218;6.576;2023-06-26T03:04:02;25.30;87.20
58554;DHT22;48119;53.218;6.576;2023-06-26T03:06:27;25.20;87.10
58554;DHT22;48119;53.218;6.576;2023-06-26T03:08:53;25.20;87.10
58554;DHT22;48119;53.218;6.576;2023-06-26T03:11:19;25.20;87.00
58554;DHT22;48119;53.218;6.576;2023-06-26T03:13:45;25.20;87.10
58554;DHT22;48119;53.218;6.576;2023-06-26T03:16:11;25.20;87.20
58554;DHT22;48119;53.218;6.576;2023-06-26T03:18:37;25.20;87.30
58554;DHT22;48119;53.218;6.576;2023-06-26T03:21:02;25.20;87.30
58554;DHT22;48119;53.218;6.576;2023-06-26T03:23:28;25.10;87.40
58554;DHT22;48119;53.218;6.576;2023-06-26T03:25:54;25.10;87.60
58554;DHT22;48119;53.218;6.576;2023-06-26T03:28:20;25.10;87.70
58554;DHT22;48119;53.218;6.576;2023-06-26T03:30:45;25.00;87.70
58554;DHT22;48119;53.218;6.576;2023-06-26T03:33:11;25.00;87.80
58554;DHT22;48119;53.218;6.576;2023-06-26T03:35:37;25.00;88.00
58554;DHT22;48119;53.218;6.576;2023-06-26T03:38:04;25.00;88.10
58554;DHT22;48119;53.218;6.576;2023-06-26T03:40:33;24.90;88.30
58554;DHT22;48119;53.218;6.576;2023-06-26T03:42:58;24.90;88.60
58554;DHT22;48119;53.218;6.576;2023-06-26T03:45:24;24.90;88.80
58554;DHT22;48119;53.218;6.576;2023-06-26T03:47:50;24.90;89.00
58554;DHT22;48119;53.218;6.576;2023-06-26T03:50:16;24.90;89.20
58554;DHT22;48119;53.218;6.576;2023-06-26T03:52:42;24.80;89.40
58554;DHT22;48119;53.218;6.576;2023-06-26T03:55:08;24.80;89.60
58554;DHT22;48119;53.218;6.576;2023-06-26T03:57:34;24.80;89.70
58554;DHT22;48119;53.218;6.576;2023-06-26T03:59:59;24.80;90.00
58554;DHT22;48119;53.218;6.576;2023-06-26T04:02:25;24.80;90.00
58554;DHT22;48119;53.218;6.576;2023-06-26T04:04:52;24.80;90.00
58554;DHT22;48119;53.218;6.576;2023-06-26T04:07:18;24.80;90.10
58554;DHT22;48119;53.218;6.576;2023-06-26T04:09:44;24.80;90.20
58554;DHT22;48119;53.218;6.576;2023-06-26T04:12:10;24.80;90.30
58554;DHT22;48119;53.218;6.576;2023-06-26T04:14:36;24.80;90.40
58554;DHT22;48119;53.218;6.576;2023-06-26T04:17:02;24.80;90.50
58554;DHT22;48119;53.218;6.576;2023-06-26T04:19:29;24.80;90.60
58554;DHT22;48119;53.218;6.576;2023-06-26T04:21:56;24.80;90.60
58554;DHT22;48119;53.218;6.576;2023-06-26T04:24:22;24.70;90.70
58554;DHT22;48119;53.218;6.576;2023-06-26T04:26:48;24.70;90.80
58554;DHT22;48119;53.218;6.576;2023-06-26T04:29:13;24.70;90.90
58554;DHT22;48119;53.218;6.576;2023-06-26T04:31:39;24.70;91.00
58554;DHT22;48119;53.218;6.576;2023-06-26T04:34:05;24.70;91.10
58554;DHT22;48119;53.218;6.576;2023-06-26T04:36:31;24.70;91.20
58554;DHT22;48119;53.218;6.576;2023-06-26T04:38:59;24.60;91.30
58554;DHT22;48119;53.218;6.576;2023-06-26T04:41:25;24.60;91.40
58554;DHT22;48119;53.218;6.576;2023-06-26T04:43:51;24.60;91.60
58554;DHT22;48119;53.218;6.576;2023-06-26T04:46:17;24.60;91.70
58554;DHT22;48119;53.218;6.576;2023-06-26T04:48:43;24.60;91.90
58554;DHT22;48119;53.218;6.576;2023-06-26T04:51:10;24.60;92.10
58554;DHT22;48119;53.218;6.576;2023-06-26T04:53:36;24.60;92.30
58554;DHT22;48119;53.218;6.576;2023-06-26T04:56:03;24.60;92.40
58554;DHT22;48119;53.218;6.576;2023-06-26T04:58:30;24.60;92.90
58554;DHT22;48119;53.218;6.576;2023-06-26T05:00:56;24.60;92.90
58554;DHT22;48119;53.218;6.576;2023-06-26T05:03:22;24.50;93.20
58554;DHT22;48119;53.218;6.576;2023-06-26T05:05:48;24.50;93.50
58554;DHT22;48119;53.218;6.576;2023-06-26T05:10:44;24.50;93.90
58554;DHT22;48119;53.218;6.576;2023-06-26T05:13:10;24.50;93.90
58554;DHT22;48119;53.218;6.576;2023-06-26T05:15:36;24.40;93.90
58554;DHT22;48119;53.218;6.576;2023-06-26T05:18:02;24.40;94.10
58554;DHT22;48119;53.218;6.576;2023-06-26T05:20:28;24.40;94.20
58554;DHT22;48119;53.218;6.576;2023-06-26T05:22:54;24.40;94.20
58554;DHT22;48119;53.218;6.576;2023-06-26T05:25:20;24.30;94.20
58554;DHT22;48119;53.218;6.576;2023-06-26T05:27:47;24.30;94.20
58554;DHT22;48119;53.218;6.576;2023-06-26T05:30:14;24.20;94.30
58554;DHT22;48119;53.218;6.576;2023-06-26T05:32:40;24.20;94.40
58554;DHT22;48119;53.218;6.576;2023-06-26T05:35:07;24.20;94.50
58554;DHT22;48119;53.218;6.576;2023-06-26T05:37:33;24.10;94.50
58554;DHT22;48119;53.218;6.576;2023-06-26T05:40:00;24.10;94.50
58554;DHT22;48119;53.218;6.576;2023-06-26T05:42:29;24.00;94.40
58554;DHT22;48119;53.218;6.576;2023-06-26T05:44:55;24.00;94.30
58554;DHT22;48119;53.218;6.576;2023-06-26T05:47:21;24.00;94.30
58554;DHT22;48119;53.218;6.576;2023-06-26T05:49:47;24.00;94.40
58554;DHT22;48119;53.218;6.576;2023-06-26T05:52:13;24.00;94.50
58554;DHT22;48119;53.218;6.576;2023-06-26T05:54:40;23.90;94.80
58554;DHT22;48119;53.218;6.576;2023-06-26T05:57:06;23.90;94.60
58554;DHT22;48119;53.218;6.576;2023-06-26T05:59:32;23.90;94.70
58554;DHT22;48119;53.218;6.576;2023-06-26T06:01:58;23.90;94.80
58554;DHT22;48119;53.218;6.576;2023-06-26T06:04:24;23.80;94.80
58554;DHT22;48119;53.218;6.576;2023-06-26T06:06:50;23.80;94.90
58554;DHT22;48119;53.218;6.576;2023-06-26T06:09:15;23.70;95.00
58554;DHT22;48119;53.218;6.576;2023-06-26T06:11:41;23.70;95.10
58554;DHT22;48119;53.218;6.576;2023-06-26T06:14:07;23.70;95.10
58554;DHT22;48119;53.218;6.576;2023-06-26T06:16:33;23.70;95.10
58554;DHT22;48119;53.218;6.576;2023-06-26T06:18:58;23.70;95.10
58554;DHT22;48119;53.218;6.576;2023-06-26T06:21:24;23.60;95.20
58554;DHT22;48119;53.218;6.576;2023-06-26T06:23:50;23.70;95.10
58554;DHT22;48119;53.218;6.576;2023-06-26T06:26:15;23.60;95.00
58554;DHT22;48119;53.218;6.576;2023-06-26T06:28:41;23.60;94.90
58554;DHT22;48119;53.218;6.576;2023-06-26T06:31:07;23.70;94.90
58554;DHT22;48119;53.218;6.576;2023-06-26T06:33:33;23.70;94.90
58554;DHT22;48119;53.218;6.576;2023-06-26T06:35:59;23.70;94.90
58554;DHT22;48119;53.218;6.576;2023-06-26T06:38:25;23.70;94.70
58554;DHT22;48119;53.218;6.576;2023-06-26T06:40:51;23.60;94.50
58554;DHT22;48119;53.218;6.576;2023-06-26T06:43:17;23.60;94.40
58554;DHT22;48119;53.218;6.576;2023-06-26T06:45:42;23.70;94.40
58554;DHT22;48119;53.218;6.576;2023-06-26T06:48:08;23.70;94.20
58554;DHT22;48119;53.218;6.576;2023-06-26T06:50:34;23.70;94.10
58554;DHT22;48119;53.218;6.576;2023-06-26T06:52:59;23.70;94.00
58554;DHT22;48119;53.218;6.576;2023-06-26T06:55:25;23.70;93.80
58554;DHT22;48119;53.218;6.576;2023-06-26T06:57:51;23.70;93.60
58554;DHT22;48119;53.218;6.576;2023-06-26T07:00:17;23.70;93.50
58554;DHT22;48119;53.218;6.576;2023-06-26T07:02:44;23.70;93.20
58554;DHT22;48119;53.218;6.576;2023-06-26T07:05:11;23.80;93.10
58554;DHT22;48119;53.218;6.576;2023-06-26T07:07:37;23.70;92.70
58554;DHT22;48119;53.218;6.576;2023-06-26T07:10:06;23.80;92.30
58554;DHT22;48119;53.218;6.576;2023-06-26T07:12:33;23.80;92.20
58554;DHT22;48119;53.218;6.576;2023-06-26T07:15:00;23.80;91.80
58554;DHT22;48119;53.218;6.576;2023-06-26T07:17:26;23.80;91.60
58554;DHT22;48119;53.218;6.576;2023-06-26T07:19:52;23.80;91.50
58554;DHT22;48119;53.218;6.576;2023-06-26T07:22:18;23.80;91.40
58554;DHT22;48119;53.218;6.576;2023-06-26T07:24:47;23.90;91.30
58554;DHT22;48119;53.218;6.576;2023-06-26T07:27:17;23.90;91.20
58554;DHT22;48119;53.218;6.576;2023-06-26T07:29:44;23.90;91.20
58554;DHT22;48119;53.218;6.576;2023-06-26T07:32:10;23.90;91.10
58554;DHT22;48119;53.218;6.576;2023-06-26T07:34:36;23.90;91.10
58554;DHT22;48119;53.218;6.576;2023-06-26T07:37:02;23.90;91.20
58554;DHT22;48119;53.218;6.576;2023-06-26T07:39:29;23.90;91.30
58554;DHT22;48119;53.218;6.576;2023-06-26T07:41:55;23.90;91.30
58554;DHT22;48119;53.218;6.576;2023-06-26T07:44:21;23.90;91.20
58554;DHT22;48119;53.218;6.576;2023-06-26T07:46:47;23.90;91.30
58554;DHT22;48119;53.218;6.576;2023-06-26T07:49:13;23.90;91.20
58554;DHT22;48119;53.218;6.576;2023-06-26T07:51:39;23.90;90.90
58554;DHT22;48119;53.218;6.576;2023-06-26T07:54:05;23.90;90.70
58554;DHT22;48119;53.218;6.576;2023-06-26T07:56:31;23.90;90.70
58554;DHT22;48119;53.218;6.576;2023-06-26T07:58:56;23.90;90.60
58554;DHT22;48119;53.218;6.576;2023-06-26T08:01:29;23.90;90.70
58554;DHT22;48119;53.218;6.576;2023-06-26T08:03:55;23.90;90.20
58554;DHT22;48119;53.218;6.576;2023-06-26T08:06:21;23.90;90.10
58554;DHT22;48119;53.218;6.576;2023-06-26T08:08:46;23.90;90.10
58554;DHT22;48119;53.218;6.576;2023-06-26T08:11:12;23.90;90.10
58554;DHT22;48119;53.218;6.576;2023-06-26T08:13:38;23.90;90.20
58554;DHT22;48119;53.218;6.576;2023-06-26T08:16:04;23.90;90.30
58554;DHT22;48119;53.218;6.576;2023-06-26T08:18:30;23.90;90.40
58554;DHT22;48119;53.218;6.576;2023-06-26T08:20:56;23.90;90.40
58554;DHT22;48119;53.218;6.576;2023-06-26T08:23:22;23.90;90.10
58554;DHT22;48119;53.218;6.576;2023-06-26T08:25:47;23.80;90.00
58554;DHT22;48119;53.218;6.576;2023-06-26T08:28:14;23.90;90.10
58554;DHT22;48119;53.218;6.576;2023-06-26T08:30:40;23.90;90.00
58554;DHT22;48119;53.218;6.576;2023-06-26T08:33:06;23.90;90.00
58554;DHT22;48119;53.218;6.576;2023-06-26T08:35:36;23.90;90.10
58554;DHT22;48119;53.218;6.576;2023-06-26T08:38:01;23.90;90.00
58554;DHT22;48119;53.218;6.576;2023-06-26T08:40:28;23.90;90.00
58554;DHT22;48119;53.218;6.576;2023-06-26T08:42:53;23.90;90.00
58554;DHT22;48119;53.218;6.576;2023-06-26T08:45:20;23.90;89.90
58554;DHT22;48119;53.218;6.576;2023-06-26T08:47:48;23.90;89.80
58554;DHT22;48119;53.218;6.576;2023-06-26T08:50:17;23.90;89.70
58554;DHT22;48119;53.218;6.576;2023-06-26T08:53:37;23.90;89.90
58554;DHT22;48119;53.218;6.576;2023-06-26T08:55:43;23.90;89.90
58554;DHT22;48119;53.218;6.576;2023-06-26T08:58:10;24.00;90.10
58554;DHT22;48119;53.218;6.576;2023-06-26T09:00:37;23.90;90.00
58554;DHT22;48119;53.218;6.576;2023-06-26T09:03:04;23.90;89.80
58554;DHT22;48119;53.218;6.576;2023-06-26T09:05:30;24.00;89.70
58554;DHT22;48119;53.218;6.576;2023-06-26T09:07:57;24.00;89.50
58554;DHT22;48119;53.218;6.576;2023-06-26T09:10:24;24.10;89.30
58554;DHT22;48119;53.218;6.576;2023-06-26T09:12:50;24.00;89.20
58554;DHT22;48119;53.218;6.576;2023-06-26T09:15:19;24.10;89.20
58554;DHT22;48119;53.218;6.576;2023-06-26T09:17:45;24.10;89.20
58554;DHT22;48119;53.218;6.576;2023-06-26T09:20:12;24.10;89.10
58554;DHT22;48119;53.218;6.576;2023-06-26T09:22:43;24.10;88.40
58554;DHT22;48119;53.218;6.576;2023-06-26T09:25:12;24.10;88.10
58554;DHT22;48119;53.218;6.576;2023-06-26T09:27:38;24.10;88.00
58554;DHT22;48119;53.218;6.576;2023-06-26T09:30:05;24.10;88.00
58554;DHT22;48119;53.218;6.576;2023-06-26T09:32:37;24.10;87.80
58554;DHT22;48119;53.218;6.576;2023-06-26T09:35:03;24.10;87.60
58554;DHT22;48119;53.218;6.576;2023-06-26T09:37:29;24.10;87.80
58554;DHT22;48119;53.218;6.576;2023-06-26T09:39:55;24.10;87.80
58554;DHT22;48119;53.218;6.576;2023-06-26T09:42:23;24.10;87.90
58554;DHT22;48119;53.218;6.576;2023-06-26T09:44:49;24.10;88.10
58554;DHT22;48119;53.218;6.576;2023-06-26T09:47:18;24.10;88.10
58554;DHT22;48119;53.218;6.576;2023-06-26T09:49:43;24.20;88.00
58554;DHT22;48119;53.218;6.576;2023-06-26T09:52:10;24.20;87.30
58554;DHT22;48119;53.218;6.576;2023-06-26T09:54:38;24.20;86.70
58554;DHT22;48119;53.218;6.576;2023-06-26T09:57:12;24.20;86.10
58554;DHT22;48119;53.218;6.576;2023-06-26T09:59:39;24.30;85.60
58554;DHT22;48119;53.218;6.576;2023-06-26T10:02:05;24.20;85.60
58554;DHT22;48119;53.218;6.576;2023-06-26T10:04:32;24.20;85.50
58554;DHT22;48119;53.218;6.576;2023-06-26T10:07:00;24.30;85.40
58554;DHT22;48119;53.218;6.576;2023-06-26T10:09:27;24.30;85.40
58554;DHT22;48119;53.218;6.576;2023-06-26T10:12:03;24.30;85.40
58554;DHT22;48119;53.218;6.576;2023-06-26T10:14:35;24.40;85.20
58554;DHT22;48119;53.218;6.576;2023-06-26T10:17:09;24.50;85.10
58554;DHT22;48119;53.218;6.576;2023-06-26T10:19:40;24.50;84.00
58554;DHT22;48119;53.218;6.576;2023-06-26T10:22:07;24.50;83.80
58554;DHT22;48119;53.218;6.576;2023-06-26T10:24:35;24.50;83.40
58554;DHT22;48119;53.218;6.576;2023-06-26T10:27:20;24.50;82.30
58554;DHT22;48119;53.218;6.576;2023-06-26T10:29:49;24.50;81.80
58554;DHT22;48119;53.218;6.576;2023-06-26T10:32:17;24.50;81.90
58554;DHT22;48119;53.218;6.576;2023-06-26T10:34:44;24.50;82.20
58554;DHT22;48119;53.218;6.576;2023-06-26T10:37:12;24.50;82.30
58554;DHT22;48119;53.218;6.576;2023-06-26T10:39:51;24.50;82.70
58554;DHT22;48119;53.218;6.576;2023-06-26T10:42:28;24.50;82.40
58554;DHT22;48119;53.218;6.576;2023-06-26T10:45:19;24.50;82.00
58554;DHT22;48119;53.218;6.576;2023-06-26T10:47:51;24.50;81.70
58554;DHT22;48119;53.218;6.576;2023-06-26T10:53:21;24.40;81.40
58554;DHT22;48119;53.218;6.576;2023-06-26T10:55:51;24.50;81.90
58554;DHT22;48119;53.218;6.576;2023-06-26T10:58:42;24.50;81.90
58554;DHT22;48119;53.218;6.576;2023-06-26T11:03:37;24.60;82.30
58554;DHT22;48119;53.218;6.576;2023-06-26T11:06:14;24.60;82.30
58554;DHT22;48119;53.218;6.576;2023-06-26T11:09:23;24.60;82.10
58554;DHT22;48119;53.218;6.576;2023-06-26T11:14:20;24.70;80.90
58554;DHT22;48119;53.218;6.576;2023-06-26T11:16:46;24.70;81.00
58554;DHT22;48119;53.218;6.576;2023-06-26T11:19:13;24.80;81.00
58554;DHT22;48119;53.218;6.576;2023-06-26T11:21:40;24.80;80.10
58554;DHT22;48119;53.218;6.576;2023-06-26T11:24:11;24.80;80.50
58554;DHT22;48119;53.218;6.576;2023-06-26T11:26:40;24.80;80.60
58554;DHT22;48119;53.218;6.576;2023-06-26T11:29:07;24.80;80.40
58554;DHT22;48119;53.218;6.576;2023-06-26T11:31:35;24.80;80.00
58554;DHT22;48119;53.218;6.576;2023-06-26T11:34:06;24.80;80.00
58554;DHT22;48119;53.218;6.576;2023-06-26T11:36:40;24.80;80.10
58554;DHT22;48119;53.218;6.576;2023-06-26T11:39:08;24.80;79.70
58554;DHT22;48119;53.218;6.576;2023-06-26T11:41:36;24.80;79.10
58554;DHT22;48119;53.218;6.576;2023-06-26T11:44:06;24.80;79.00
58554;DHT22;48119;53.218;6.576;2023-06-26T11:46:34;24.90;79.00
58554;DHT22;48119;53.218;6.576;2023-06-26T11:49:02;24.90;79.50
58554;DHT22;48119;53.218;6.576;2023-06-26T11:51:28;24.90;79.20
58554;DHT22;48119;53.218;6.576;2023-06-26T11:53:54;24.90;79.00
58554;DHT22;48119;53.218;6.576;2023-06-26T11:56:20;24.90;78.70
58554;DHT22;48119;53.218;6.576;2023-06-26T11:58:58;24.90;78.40
58554;DHT22;48119;53.218;6.576;2023-06-26T12:01:29;24.90;78.30
58554;DHT22;48119;53.218;6.576;2023-06-26T12:04:01;24.90;78.10
58554;DHT22;48119;53.218;6.576;2023-06-26T12:06:28;24.90;78.70
58554;DHT22;48119;53.218;6.576;2023-06-26T12:08:55;24.90;77.80
58554;DHT22;48119;53.218;6.576;2023-06-26T12:11:23;24.90;77.60
58554;DHT22;48119;53.218;6.576;2023-06-26T12:13:49;24.90;77.40
58554;DHT22;48119;53.218;6.576;2023-06-26T12:16:15;24.90;77.20
58554;DHT22;48119;53.218;6.576;2023-06-26T12:18:41;24.90;77.30
58554;DHT22;48119;53.218;6.576;2023-06-26T12:21:07;24.80;76.50
58554;DHT22;48119;53.218;6.576;2023-06-26T12:23:39;24.80;75.80
58554;DHT22;48119;53.218;6.576;2023-06-26T12:26:21;24.80;76.20
58554;DHT22;48119;53.218;6.576;2023-06-26T12:28:47;24.80;76.60
58554;DHT22;48119;53.218;6.576;2023-06-26T12:31:14;24.80;76.60
58554;DHT22;48119;53.218;6.576;2023-06-26T12:33:45;24.80;76.60
58554;DHT22;48119;53.218;6.576;2023-06-26T12:36:14;24.80;76.50
58554;DHT22;48119;53.218;6.576;2023-06-26T12:38:45;24.80;76.40
58554;DHT22;48119;53.218;6.576;2023-06-26T12:41:15;24.80;76.20
58554;DHT22;48119;53.218;6.576;2023-06-26T12:43:41;24.80;75.70
58554;DHT22;48119;53.218;6.576;2023-06-26T12:46:07;24.90;74.60
58554;DHT22;48119;53.218;6.576;2023-06-26T12:48:39;24.90;74.00
58554;DHT22;48119;53.218;6.576;2023-06-26T12:51:16;24.90;74.10
58554;DHT22;48119;53.218;6.576;2023-06-26T12:53:42;24.90;74.10
58554;DHT22;48119;53.218;6.576;2023-06-26T12:56:11;24.90;74.40
58554;DHT22;48119;53.218;6.576;2023-06-26T12:58:37;24.90;74.90
58554;DHT22;48119;53.218;6.576;2023-06-26T13:01:04;24.90;75.00
58554;DHT22;48119;53.218;6.576;2023-06-26T13:03:31;24.80;74.70
58554;DHT22;48119;53.218;6.576;2023-06-26T13:05:57;24.80;75.10
58554;DHT22;48119;53.218;6.576;2023-06-26T13:08:22;24.80;75.30
58554;DHT22;48119;53.218;6.576;2023-06-26T13:10:48;24.70;75.40
58554;DHT22;48119;53.218;6.576;2023-06-26T13:13:14;24.70;75.50
58554;DHT22;48119;53.218;6.576;2023-06-26T13:15:40;24.70;75.60
58554;DHT22;48119;53.218;6.576;2023-06-26T13:18:06;24.70;75.30
58554;DHT22;48119;53.218;6.576;2023-06-26T13:20:39;24.70;75.40
58554;DHT22;48119;53.218;6.576;2023-06-26T13:23:05;24.70;75.60
58554;DHT22;48119;53.218;6.576;2023-06-26T13:25:31;24.60;75.80
58554;DHT22;48119;53.218;6.576;2023-06-26T13:27:56;24.60;75.80
58554;DHT22;48119;53.218;6.576;2023-06-26T13:30:22;24.60;75.60
58554;DHT22;48119;53.218;6.576;2023-06-26T13:32:48;24.60;75.70
58554;DHT22;48119;53.218;6.576;2023-06-26T13:35:14;24.70;75.80
58554;DHT22;48119;53.218;6.576;2023-06-26T13:37:41;24.70;76.00
58554;DHT22;48119;53.218;6.576;2023-06-26T13:40:08;24.70;75.90
58554;DHT22;48119;53.218;6.576;2023-06-26T13:42:34;24.70;75.60
58554;DHT22;48119;53.218;6.576;2023-06-26T13:45:02;24.60;75.00
58554;DHT22;48119;53.218;6.576;2023-06-26T13:47:29;24.60;74.50
58554;DHT22;48119;53.218;6.576;2023-06-26T13:49:55;24.60;74.60
58554;DHT22;48119;53.218;6.576;2023-06-26T13:52:20;24.50;75.10
58554;DHT22;48119;53.218;6.576;2023-06-26T13:54:46;24.60;76.20
58554;DHT22;48119;53.218;6.576;2023-06-26T13:57:12;24.50;77.10
58554;DHT22;48119;53.218;6.576;2023-06-26T13:59:38;24.50;77.40
58554;DHT22;48119;53.218;6.576;2023-06-26T14:02:05;24.40;77.00
58554;DHT22;48119;53.218;6.576;2023-06-26T14:04:32;24.40;77.30
58554;DHT22;48119;53.218;6.576;2023-06-26T14:06:58;24.30;78.00
58554;DHT22;48119;53.218;6.576;2023-06-26T14:09:24;24.30;78.50
58554;DHT22;48119;53.218;6.576;2023-06-26T14:11:50;24.30;79.50
58554;DHT22;48119;53.218;6.576;2023-06-26T14:14:16;24.20;79.20
58554;DHT22;48119;53.218;6.576;2023-06-26T14:16:42;24.20;79.50
58554;DHT22;48119;53.218;6.576;2023-06-26T14:19:08;24.20;79.60
58554;DHT22;48119;53.218;6.576;2023-06-26T14:21:41;24.20;79.80
58554;DHT22;48119;53.218;6.576;2023-06-26T14:24:07;24.10;79.80
58554;DHT22;48119;53.218;6.576;2023-06-26T14:26:32;24.20;80.20
58554;DHT22;48119;53.218;6.576;2023-06-26T14:28:59;24.10;80.50
58554;DHT22;48119;53.218;6.576;2023-06-26T14:31:26;24.10;80.00
58554;DHT22;48119;53.218;6.576;2023-06-26T14:33:52;24.10;80.70
58554;DHT22;48119;53.218;6.576;2023-06-26T14:36:18;24.10;80.00
58554;DHT22;48119;53.218;6.576;2023-06-26T14:38:45;24.10;79.70
58554;DHT22;48119;53.218;6.576;2023-06-26T14:41:11;24.10;79.50
58554;DHT22;48119;53.218;6.576;2023-06-26T14:43:38;24.00;79.60
58554;DHT22;48119;53.218;6.576;2023-06-26T14:46:03;24.00;80.20
58554;DHT22;48119;53.218;6.576;2023-06-26T14:48:29;24.00;80.30
58554;DHT22;48119;53.218;6.576;2023-06-26T14:50:55;23.90;79.70
58554;DHT22;48119;53.218;6.576;2023-06-26T14:53:21;23.90;79.50
58554;DHT22;48119;53.218;6.576;2023-06-26T14:55:47;23.90;79.90
58554;DHT22;48119;53.218;6.576;2023-06-26T14:58:13;23.90;80.20
58554;DHT22;48119;53.218;6.576;2023-06-26T15:00:38;23.80;80.40
58554;DHT22;48119;53.218;6.576;2023-06-26T15:03:04;23.80;80.10
58554;DHT22;48119;53.218;6.576;2023-06-26T15:05:30;23.80;80.10
58554;DHT22;48119;53.218;6.576;2023-06-26T15:07:56;23.80;80.10
58554;DHT22;48119;53.218;6.576;2023-06-26T15:10:22;23.70;80.10
58554;DHT22;48119;53.218;6.576;2023-06-26T15:12:47;23.80;79.80
58554;DHT22;48119;53.218;6.576;2023-06-26T15:15:13;23.80;79.30
58554;DHT22;48119;53.218;6.576;2023-06-26T15:17:39;23.80;78.90
58554;DHT22;48119;53.218;6.576;2023-06-26T15:20:05;23.80;79.00
58554;DHT22;48119;53.218;6.576;2023-06-26T15:22:31;23.70;79.20
58554;DHT22;48119;53.218;6.576;2023-06-26T15:24:57;23.70;79.40
58554;DHT22;48119;53.218;6.576;2023-06-26T15:27:23;23.70;79.20
58554;DHT22;48119;53.218;6.576;2023-06-26T15:29:49;23.70;78.90
58554;DHT22;48119;53.218;6.576;2023-06-26T15:32:14;23.70;78.80
58554;DHT22;48119;53.218;6.576;2023-06-26T15:34:42;23.70;78.90
58554;DHT22;48119;53.218;6.576;2023-06-26T15:37:07;23.70;78.50
58554;DHT22;48119;53.218;6.576;2023-06-26T15:39:33;23.70;78.20
58554;DHT22;48119;53.218;6.576;2023-06-26T15:41:59;23.70;78.10